createdAt,value
2017-08-08T00:02:20.054Z,3.50
2017-08-08T00:04:48.311Z,3.85
2017-08-08T00:07:15.817Z,3.60
2017-08-08T00:09:43.385Z,5.65
2017-08-08T00:12:11.986Z,3.45
2017-08-08T00:14:39.479Z,4.00
2017-08-08T00:17:06.986Z,3.85
2017-08-08T00:19:34.511Z,3.75
2017-08-08T00:22:02.018Z,4.62
2017-08-08T00:24:29.515Z,3.72
2017-08-08T00:26:57.032Z,5.20
2017-08-08T00:29:24.542Z,4.45
2017-08-08T00:31:52.051Z,4.43
2017-08-08T00:34:19.581Z,3.20
2017-08-08T00:36:47.087Z,4.35
2017-08-08T00:39:14.603Z,3.80
2017-08-08T00:41:42.124Z,4.25
2017-08-08T00:44:09.840Z,3.47
2017-08-08T00:46:37.374Z,4.00
2017-08-08T00:49:05.687Z,4.20
2017-08-08T00:51:33.201Z,3.95
2017-08-08T00:54:00.713Z,4.62
2017-08-08T00:56:28.225Z,3.97
2017-08-08T00:58:56.520Z,3.75
2017-08-08T01:01:24.046Z,4.40
2017-08-08T01:03:51.589Z,4.12
2017-08-08T01:06:19.096Z,4.03
2017-08-08T01:08:47.361Z,4.43
2017-08-08T01:11:14.860Z,4.28
2017-08-08T01:13:42.383Z,4.20
2017-08-08T01:16:10.808Z,4.28
2017-08-08T01:18:38.343Z,4.03
2017-08-08T01:21:05.857Z,4.28
2017-08-08T01:23:33.419Z,4.12
2017-08-08T01:26:00.912Z,4.20
2017-08-08T01:28:28.410Z,3.78
2017-08-08T01:30:55.919Z,3.80
2017-08-08T01:33:24.576Z,4.40
2017-08-08T01:35:52.088Z,3.60
2017-08-08T01:38:19.568Z,3.87
2017-08-08T01:40:47.059Z,4.43
2017-08-08T01:43:14.575Z,3.62
2017-08-08T01:45:42.117Z,5.07
2017-08-08T01:48:09.605Z,4.60
2017-08-08T01:50:37.158Z,3.95
2017-08-08T01:53:04.679Z,4.75
2017-08-08T01:55:32.194Z,3.92
2017-08-08T01:57:59.695Z,4.75
2017-08-08T02:00:27.202Z,4.50
2017-08-08T02:02:54.714Z,4.47
2017-08-08T02:05:23.032Z,4.57
2017-08-08T02:07:50.603Z,4.22
2017-08-08T02:10:18.125Z,3.95
2017-08-08T02:12:45.629Z,4.50
2017-08-08T02:15:13.118Z,3.75
2017-08-08T02:17:40.618Z,4.97
2017-08-08T02:20:08.159Z,4.30
2017-08-08T02:22:35.688Z,4.15
2017-08-08T02:25:03.166Z,4.18
2017-08-08T02:27:30.668Z,4.37
2017-08-08T02:29:58.164Z,4.22
2017-08-08T02:32:25.682Z,4.47
2017-08-08T02:34:53.174Z,3.97
2017-08-08T02:37:20.693Z,4.10
2017-08-08T02:39:48.251Z,4.87
2017-08-08T02:42:15.763Z,4.43
2017-08-08T02:44:43.268Z,4.80
2017-08-08T02:47:10.774Z,4.07
2017-08-08T02:49:38.281Z,3.92
2017-08-08T02:52:05.767Z,4.00
2017-08-08T02:54:33.269Z,4.90
2017-08-08T02:57:00.779Z,5.00
2017-08-08T02:59:28.284Z,4.90
2017-08-08T03:01:56.575Z,5.37
2017-08-08T03:04:24.840Z,4.57
2017-08-08T03:06:53.131Z,5.03
2017-08-08T03:09:21.417Z,5.60
2017-08-08T03:11:48.939Z,4.93
2017-08-08T03:14:16.429Z,5.60
2017-08-08T03:16:43.933Z,4.85
2017-08-08T03:19:11.460Z,4.90
2017-08-08T03:21:38.974Z,4.87
2017-08-08T03:24:06.502Z,5.18
2017-08-08T03:26:34.022Z,4.90
2017-08-08T03:29:02.276Z,5.65
2017-08-08T03:31:30.576Z,4.95
2017-08-08T03:33:58.061Z,4.85
2017-08-08T03:36:25.567Z,4.80
2017-08-08T03:38:53.078Z,5.35
2017-08-08T03:41:20.599Z,6.05
2017-08-08T03:43:48.878Z,5.20
2017-08-08T03:46:17.135Z,5.20
2017-08-08T03:48:44.754Z,5.05
2017-08-08T03:51:12.269Z,5.12
2017-08-08T03:53:39.765Z,5.82
2017-08-08T03:56:07.277Z,5.20
2017-08-08T03:58:34.808Z,5.53
2017-08-08T04:01:02.310Z,4.95
2017-08-08T04:03:30.588Z,5.25
2017-08-08T04:05:58.859Z,6.03
2017-08-08T04:08:27.208Z,5.37
2017-08-08T04:10:54.692Z,5.68
2017-08-08T04:13:22.186Z,5.90
2017-08-08T04:15:49.693Z,6.15
2017-08-08T04:18:17.186Z,5.82
2017-08-08T04:20:45.475Z,5.40
2017-08-08T04:23:12.964Z,5.47
2017-08-08T04:25:40.580Z,5.65
2017-08-08T04:28:08.851Z,5.87
2017-08-08T04:30:37.147Z,6.25
2017-08-08T04:33:04.631Z,6.40
2017-08-08T04:35:32.161Z,5.35
2017-08-08T04:37:59.644Z,5.60
2017-08-08T04:40:27.178Z,6.05
2017-08-08T04:42:55.469Z,6.32
2017-08-08T04:45:22.978Z,5.85
2017-08-08T04:47:50.469Z,7.28
2017-08-08T04:50:17.998Z,6.80
2017-08-08T04:52:45.494Z,5.72
2017-08-08T04:55:13.005Z,7.50
2017-08-08T04:57:40.517Z,7.03
2017-08-08T05:00:08.015Z,5.90
2017-08-08T05:02:35.511Z,6.87
2017-08-08T05:05:03.807Z,6.50
2017-08-08T05:07:32.084Z,6.43
2017-08-08T05:09:59.611Z,5.85
2017-08-08T05:12:27.117Z,6.75
2017-08-08T05:14:54.593Z,6.10
2017-08-08T05:17:22.109Z,7.50
2017-08-08T05:19:50.404Z,5.57
2017-08-08T05:22:17.896Z,7.10
2017-08-08T05:24:45.402Z,6.43
2017-08-08T05:27:12.898Z,6.40
2017-08-08T05:29:40.389Z,6.80
2017-08-08T05:32:07.875Z,6.20
2017-08-08T05:34:36.171Z,6.03
2017-08-08T05:37:04.037Z,7.62
2017-08-08T05:39:31.534Z,6.90
2017-08-08T05:41:59.046Z,7.37
2017-08-08T05:44:26.556Z,5.30
2017-08-08T05:46:54.069Z,6.35
2017-08-08T05:49:22.368Z,6.50
2017-08-08T05:51:49.955Z,6.80
2017-08-08T05:54:17.482Z,5.70
2017-08-08T05:56:44.977Z,6.45
2017-08-08T05:59:12.518Z,6.70
2017-08-08T06:01:40.037Z,5.75
2017-08-08T06:04:08.293Z,6.45
2017-08-08T06:06:36.607Z,7.12
2017-08-08T06:09:04.117Z,6.25
2017-08-08T06:11:31.614Z,6.90
2017-08-08T06:13:59.125Z,5.68
2017-08-08T06:16:26.684Z,5.35
2017-08-08T06:18:54.177Z,4.70
2017-08-08T06:21:21.695Z,5.20
2017-08-08T06:23:49.187Z,4.55
2017-08-08T06:26:16.700Z,5.12
2017-08-08T06:28:44.224Z,5.20
2017-08-08T06:31:11.866Z,4.22
2017-08-08T06:33:39.362Z,3.15
2017-08-08T06:36:06.879Z,5.07
2017-08-08T06:38:34.418Z,4.65
2017-08-08T06:41:01.956Z,4.72
2017-08-08T06:43:29.460Z,4.57
2017-08-08T06:45:57.149Z,4.22
2017-08-08T06:48:25.424Z,4.35
2017-08-08T06:50:53.705Z,4.15
2017-08-08T06:53:21.987Z,6.45
2017-08-08T06:55:49.486Z,3.95
2017-08-08T06:58:18.336Z,4.68
2017-08-08T07:00:47.435Z,4.40
2017-08-08T07:03:16.363Z,4.35
2017-08-08T07:05:43.879Z,4.57
2017-08-08T07:08:11.393Z,4.07
2017-08-08T07:10:38.888Z,3.47
2017-08-08T07:13:07.173Z,4.10
2017-08-08T07:15:35.444Z,4.65
2017-08-08T07:18:03.714Z,4.15
2017-08-08T07:20:31.190Z,3.95
2017-08-08T07:22:59.448Z,4.43
2017-08-08T07:25:27.718Z,3.78
2017-08-08T07:27:55.229Z,3.60
2017-08-08T07:30:22.705Z,3.42
2017-08-08T07:32:50.203Z,3.33
2017-08-08T07:35:17.801Z,3.20
2017-08-08T07:37:45.289Z,3.35
2017-08-08T07:40:12.849Z,3.25
2017-08-08T07:42:40.335Z,3.10
2017-08-08T07:45:07.845Z,3.80
2017-08-08T07:47:35.350Z,4.00
2017-08-08T07:50:02.847Z,3.37
2017-08-08T07:52:30.346Z,3.22
2017-08-08T07:54:57.843Z,3.00
2017-08-08T07:57:26.114Z,2.90
2017-08-08T07:59:53.623Z,2.55
2017-08-08T08:02:21.120Z,2.40
2017-08-08T08:04:48.641Z,2.58
2017-08-08T08:07:16.162Z,3.70
2017-08-08T08:09:44.412Z,2.80
2017-08-08T08:12:11.929Z,2.58
2017-08-08T08:14:46.590Z,2.50
2017-08-08T08:17:14.066Z,2.42
2017-08-08T08:19:41.549Z,2.40
2017-08-08T08:22:09.104Z,2.50
2017-08-08T08:24:37.399Z,2.92
2017-08-08T08:27:04.893Z,2.87
2017-08-08T08:29:32.386Z,3.40
2017-08-08T08:31:59.920Z,2.70
2017-08-08T08:34:27.445Z,2.50
2017-08-08T08:36:54.954Z,2.30
2017-08-08T08:39:22.449Z,2.72
2017-08-08T08:41:49.943Z,3.22
2017-08-08T08:44:17.476Z,2.22
2017-08-08T08:46:44.978Z,2.30
2017-08-08T08:49:12.488Z,2.70
2017-08-08T08:51:39.977Z,2.70
2017-08-08T08:54:07.497Z,1.62
2017-08-08T08:56:35.036Z,2.47
2017-08-08T08:59:02.556Z,2.12
2017-08-08T09:01:30.059Z,2.10
2017-08-08T09:03:58.345Z,2.30
2017-08-08T09:06:26.611Z,2.90
2017-08-08T09:08:54.871Z,2.08
2017-08-08T09:11:22.368Z,2.50
2017-08-08T09:13:49.874Z,2.78
2017-08-08T09:16:17.455Z,2.92
2017-08-08T09:18:45.042Z,2.75
2017-08-08T09:21:12.554Z,3.00
2017-08-08T09:23:40.057Z,4.55
2017-08-08T09:26:08.309Z,2.85
2017-08-08T09:28:35.815Z,3.83
2017-08-08T09:31:03.427Z,3.42
2017-08-08T09:33:31.041Z,3.60
2017-08-08T09:35:58.535Z,2.70
2017-08-08T09:38:25.999Z,3.20
2017-08-08T09:40:53.519Z,3.95
2017-08-08T09:43:21.022Z,3.90
2017-08-08T09:45:49.471Z,4.85
2017-08-08T09:48:16.959Z,4.70
2017-08-08T09:50:44.470Z,4.00
2017-08-08T09:53:11.980Z,3.17
2017-08-08T09:55:39.480Z,4.10
2017-08-08T09:58:06.977Z,3.12
2017-08-08T10:00:34.468Z,3.60
2017-08-08T10:03:01.969Z,4.22
2017-08-08T10:05:29.664Z,3.45
2017-08-08T10:07:57.175Z,3.03
2017-08-08T10:10:24.661Z,2.70
2017-08-08T10:12:52.163Z,3.60
2017-08-08T10:15:19.688Z,3.60
2017-08-08T10:17:47.228Z,3.25
2017-08-08T10:20:14.724Z,3.40
2017-08-08T10:22:42.209Z,3.30
2017-08-08T10:25:09.727Z,2.90
2017-08-08T10:27:37.252Z,2.85
2017-08-08T10:30:04.780Z,2.85
2017-08-08T10:32:32.275Z,3.17
2017-08-08T10:35:00.650Z,3.25
2017-08-08T10:37:28.195Z,3.05
2017-08-08T10:39:55.735Z,4.35
2017-08-08T10:42:23.250Z,3.90
2017-08-08T10:44:50.780Z,3.00
2017-08-08T10:47:18.290Z,3.17
2017-08-08T10:49:45.866Z,3.10
2017-08-08T10:52:13.415Z,3.50
2017-08-08T10:54:40.942Z,2.80
2017-08-08T10:57:08.516Z,4.20
2017-08-08T10:59:36.066Z,3.40
2017-08-08T11:02:04.550Z,2.57
2017-08-08T11:04:32.089Z,2.50
2017-08-08T11:06:59.597Z,2.77
2017-08-08T11:09:27.203Z,2.93
2017-08-08T11:11:54.711Z,3.40
2017-08-08T11:14:22.282Z,3.70
2017-08-08T11:16:49.802Z,3.00
2017-08-08T11:19:17.303Z,3.20
2017-08-08T11:21:44.794Z,3.67
2017-08-08T11:24:12.281Z,3.87
2017-08-08T11:26:39.819Z,2.70
2017-08-08T11:29:07.330Z,2.70
2017-08-08T11:31:34.858Z,3.80
2017-08-08T11:34:02.366Z,3.40
2017-08-08T11:36:30.707Z,3.30
2017-08-08T11:38:58.209Z,2.63
2017-08-08T11:41:26.464Z,4.10
2017-08-08T11:43:53.968Z,5.17
2017-08-08T11:46:21.453Z,3.33
2017-08-08T11:48:48.956Z,5.03
2017-08-08T11:51:16.533Z,4.30
2017-08-08T11:53:44.048Z,3.30
2017-08-08T11:56:11.552Z,2.80
2017-08-08T11:58:39.070Z,2.80
2017-08-08T12:01:06.578Z,3.70
2017-08-08T12:03:34.148Z,2.93
2017-08-08T12:06:01.664Z,3.53
2017-08-08T12:08:29.161Z,3.40
2017-08-08T12:10:56.692Z,3.60
2017-08-08T12:13:24.220Z,3.40
2017-08-08T12:15:51.762Z,3.10
2017-08-08T12:18:19.308Z,3.60
2017-08-08T12:38:06.781Z,3.30
2017-08-08T12:40:34.393Z,3.23
2017-08-08T12:43:01.900Z,3.20
2017-08-08T12:45:29.399Z,3.13
2017-08-08T12:47:57.686Z,3.30
2017-08-08T12:50:25.963Z,3.03
2017-08-08T12:52:55.101Z,3.10
2017-08-08T12:55:22.614Z,3.43
2017-08-08T12:57:50.136Z,3.93
2017-08-08T13:00:17.637Z,3.43
2017-08-08T13:02:45.907Z,6.30
2017-08-08T13:05:13.462Z,2.73
2017-08-08T13:07:40.945Z,3.40
2017-08-08T13:10:08.474Z,7.70
2017-08-08T13:12:35.990Z,3.27
2017-08-08T13:15:03.494Z,2.63
2017-08-08T13:17:31.005Z,3.10
2017-08-08T13:19:58.587Z,2.70
2017-08-08T13:22:26.141Z,3.50
2017-08-08T13:24:53.630Z,2.97
2017-08-08T13:27:21.124Z,2.37
2017-08-08T13:29:48.679Z,3.30
2017-08-08T13:32:16.186Z,2.83
2017-08-08T13:34:43.681Z,3.30
2017-08-08T13:37:11.199Z,4.80
2017-08-08T13:39:38.687Z,2.90
2017-08-08T13:42:06.195Z,2.60
2017-08-08T13:44:33.692Z,3.20
2017-08-08T13:47:01.243Z,3.07
2017-08-08T13:49:28.891Z,2.90
2017-08-08T13:51:56.391Z,3.50
2017-08-08T13:54:23.997Z,3.40
2017-08-08T13:56:51.530Z,2.93
2017-08-08T13:59:19.017Z,3.47
2017-08-08T14:01:46.544Z,4.07
2017-08-08T14:04:14.056Z,3.30
2017-08-08T14:06:41.560Z,3.40
2017-08-08T14:09:09.161Z,3.30
2017-08-08T14:11:36.696Z,3.00
2017-08-08T14:14:04.232Z,2.87
2017-08-08T14:16:31.739Z,3.70
2017-08-08T14:18:59.259Z,4.30
2017-08-08T14:21:26.840Z,2.90
2017-08-08T14:23:54.363Z,3.97
2017-08-08T14:26:21.855Z,4.03
2017-08-08T14:28:49.380Z,3.63
2017-08-08T14:31:16.880Z,4.23
2017-08-08T14:33:44.374Z,3.20
2017-08-08T14:36:11.893Z,3.72
2017-08-08T14:38:39.388Z,3.57
2017-08-08T14:41:06.895Z,4.03
2017-08-08T14:43:34.406Z,5.28
2017-08-08T14:46:01.909Z,4.20
2017-08-08T14:48:29.419Z,4.00
2017-08-08T14:50:56.934Z,3.35
2017-08-08T14:53:24.472Z,3.28
2017-08-08T14:55:52.000Z,3.50
2017-08-08T14:58:19.511Z,3.70
2017-08-08T15:18:06.984Z,3.60
2017-08-08T15:20:34.501Z,3.83
2017-08-08T15:23:02.035Z,3.97
2017-08-08T15:25:29.539Z,3.45
2017-08-08T15:27:57.127Z,3.65
2017-08-08T15:30:24.677Z,3.53
2017-08-08T15:32:52.198Z,3.90
2017-08-08T15:35:19.734Z,4.55
2017-08-08T15:37:47.259Z,4.28
2017-08-08T15:40:14.781Z,3.70
2017-08-08T15:42:42.369Z,3.60
2017-08-08T15:45:09.877Z,3.30
2017-08-08T15:47:37.420Z,4.10
2017-08-08T15:50:05.059Z,3.95
2017-08-08T15:52:32.568Z,4.93
2017-08-08T15:55:00.300Z,4.53
2017-08-08T15:57:27.873Z,4.87
2017-08-08T15:59:55.373Z,4.73
2017-08-08T16:02:22.904Z,4.45
2017-08-08T16:04:50.445Z,4.30
2017-08-08T16:07:18.030Z,4.00
2017-08-08T16:09:45.550Z,3.70
2017-08-08T16:12:13.134Z,4.87
2017-08-08T16:14:40.656Z,3.90
2017-08-08T16:17:08.225Z,4.43
2017-08-08T16:19:35.743Z,4.57
2017-08-08T16:22:04.198Z,4.33
2017-08-08T16:24:31.714Z,4.40
2017-08-08T16:26:59.257Z,6.70
2017-08-08T16:29:26.799Z,4.90
2017-08-08T16:31:54.339Z,4.95
2017-08-08T16:34:21.843Z,4.70
2017-08-08T16:36:49.360Z,5.00
2017-08-08T16:39:16.885Z,5.00
2017-08-08T16:41:44.393Z,4.43
2017-08-08T16:44:12.705Z,5.25
2017-08-08T16:46:40.210Z,4.05
2017-08-08T16:49:07.742Z,4.95
2017-08-08T16:51:35.246Z,3.90
2017-08-08T16:54:02.803Z,4.30
2017-08-08T16:56:30.421Z,3.12
2017-08-08T16:58:58.039Z,4.37
2017-08-08T17:01:26.310Z,3.60
2017-08-08T17:03:53.833Z,3.73
2017-08-08T17:06:21.413Z,3.90
2017-08-08T17:08:48.932Z,3.60
2017-08-08T17:11:16.454Z,4.80
2017-08-08T17:13:43.958Z,3.60
2017-08-08T17:16:11.472Z,4.37
2017-08-08T17:18:39.756Z,4.53
2017-08-08T17:21:08.096Z,4.70
2017-08-08T17:23:35.626Z,3.85
2017-08-08T17:26:03.142Z,4.35
2017-08-08T17:28:31.433Z,3.77
2017-08-08T17:30:58.956Z,4.35
2017-08-08T17:33:26.478Z,4.65
2017-08-08T17:35:54.004Z,5.00
2017-08-08T17:38:22.279Z,4.90
2017-08-08T17:40:50.526Z,4.75
2017-08-08T17:43:18.066Z,5.05
2017-08-08T17:45:45.608Z,4.80
2017-08-08T17:48:13.179Z,4.20
2017-08-08T17:50:42.283Z,5.05
2017-08-08T17:53:09.845Z,4.32
2017-08-08T17:55:37.355Z,6.40
2017-08-08T17:58:05.672Z,7.40
2017-08-08T18:00:33.234Z,5.35
2017-08-08T18:03:00.797Z,4.10
2017-08-08T18:05:28.322Z,3.95
2017-08-08T18:07:55.849Z,4.93
2017-08-08T18:10:23.349Z,8.95
2017-08-08T18:12:50.898Z,5.32
2017-08-08T18:15:18.407Z,4.43
2017-08-08T18:17:45.994Z,4.05
2017-08-08T18:20:13.531Z,5.00
2017-08-08T18:22:41.022Z,5.20
2017-08-08T18:25:09.295Z,5.43
2017-08-08T18:27:36.804Z,5.28
2017-08-08T18:30:04.304Z,5.03
2017-08-08T18:32:31.840Z,5.93
2017-08-08T18:34:59.457Z,10.52
2017-08-08T18:37:26.968Z,5.82
2017-08-08T18:39:54.500Z,6.32
2017-08-08T18:42:22.050Z,6.57
2017-08-08T18:44:49.624Z,5.22
2017-08-08T18:47:17.162Z,5.00
2017-08-08T18:49:44.685Z,5.85
2017-08-08T18:52:12.203Z,6.80
2017-08-08T18:54:39.723Z,5.70
2017-08-08T18:57:07.359Z,5.60
2017-08-08T18:59:34.862Z,5.85
2017-08-08T19:02:02.390Z,5.68
2017-08-08T19:04:29.912Z,9.23
2017-08-08T19:06:57.446Z,5.95
2017-08-08T19:09:24.955Z,8.65
2017-08-08T19:11:52.495Z,4.80
2017-08-08T19:14:20.006Z,6.50
2017-08-08T19:16:47.516Z,6.20
2017-08-08T19:19:15.048Z,6.35
2017-08-08T19:21:42.580Z,6.62
2017-08-08T19:24:10.095Z,6.32
2017-08-08T19:26:37.680Z,6.55
2017-08-08T19:29:05.261Z,5.57
2017-08-08T19:31:32.771Z,6.35
2017-08-08T19:34:00.319Z,6.18
2017-08-08T19:36:27.845Z,5.78
2017-08-08T19:38:56.110Z,4.57
2017-08-08T19:41:24.393Z,5.30
2017-08-08T19:43:52.661Z,5.72
2017-08-08T19:46:20.151Z,5.00
2017-08-08T19:48:47.689Z,5.10
2017-08-08T19:51:15.215Z,4.35
2017-08-08T19:53:42.742Z,6.30
2017-08-08T19:56:10.276Z,6.78
2017-08-08T19:58:37.952Z,6.62
2017-08-08T20:01:05.462Z,5.72
2017-08-08T20:03:32.971Z,7.15
2017-08-08T20:06:00.537Z,6.62
2017-08-08T20:08:28.044Z,7.37
2017-08-08T20:10:55.590Z,6.10
2017-08-08T20:13:23.097Z,5.20
2017-08-08T20:15:50.603Z,6.78
2017-08-08T20:18:18.113Z,7.05
2017-08-08T20:20:45.654Z,5.85
2017-08-08T20:23:13.171Z,6.55
2017-08-08T20:25:48.508Z,5.50
2017-08-08T20:28:15.996Z,5.35
2017-08-08T20:30:43.511Z,5.95
2017-08-08T20:33:11.010Z,6.10
2017-08-08T20:35:38.569Z,5.68
2017-08-08T20:38:06.088Z,6.10
2017-08-08T20:40:33.623Z,4.55
2017-08-08T20:43:01.903Z,4.80
2017-08-08T20:45:30.185Z,6.65
2017-08-08T20:47:58.452Z,5.80
2017-08-08T20:50:27.053Z,4.78
2017-08-08T20:52:54.558Z,7.75
2017-08-08T20:55:22.075Z,7.35
2017-08-08T20:57:49.602Z,7.53
2017-08-08T21:00:17.121Z,7.68
2017-08-08T21:02:44.629Z,5.70
2017-08-08T21:05:12.918Z,5.07
2017-08-08T21:07:41.210Z,6.15
2017-08-08T21:10:08.724Z,6.82
2017-08-08T21:12:36.277Z,4.93
2017-08-08T21:15:03.826Z,6.15
2017-08-08T21:17:31.343Z,5.12
2017-08-08T21:19:58.909Z,4.60
2017-08-08T21:22:26.414Z,5.75
2017-08-08T21:24:53.932Z,4.72
2017-08-08T21:27:21.428Z,3.97
2017-08-08T21:29:49.009Z,5.00
2017-08-08T21:32:16.540Z,5.28
2017-08-08T21:34:44.054Z,4.62
2017-08-08T21:37:12.366Z,6.03
2017-08-08T21:39:39.867Z,5.03
2017-08-08T21:42:07.406Z,5.28
2017-08-08T21:44:34.956Z,5.03
2017-08-08T21:47:02.475Z,8.75
2017-08-08T21:49:30.853Z,5.00
2017-08-08T21:51:59.143Z,5.37
2017-08-08T21:54:26.732Z,5.55
2017-08-08T21:56:54.276Z,4.82
2017-08-08T21:59:21.848Z,5.90
2017-08-08T22:01:49.358Z,5.12
2017-08-08T22:04:17.767Z,5.53
2017-08-08T22:06:45.317Z,7.45
2017-08-08T22:09:12.823Z,5.05
2017-08-08T22:11:40.453Z,5.22
2017-08-08T22:14:08.770Z,4.97
2017-08-08T22:16:36.406Z,5.25
2017-08-08T22:19:04.054Z,4.97
2017-08-08T22:21:31.577Z,5.75
2017-08-08T22:23:59.225Z,5.35
2017-08-08T22:26:26.765Z,5.50
2017-08-08T22:28:54.436Z,4.90
2017-08-08T22:31:22.022Z,5.60
2017-08-08T22:33:49.542Z,5.32
2017-08-08T22:36:17.064Z,5.15
2017-08-08T22:38:44.673Z,5.05
2017-08-08T22:41:12.185Z,4.30
2017-08-08T22:43:39.716Z,4.75
2017-08-08T22:46:07.426Z,4.85
2017-08-08T22:48:35.130Z,5.75
2017-08-08T22:51:02.689Z,4.00
2017-08-08T22:53:30.166Z,4.70
2017-08-08T22:55:57.727Z,4.90
2017-08-08T22:58:25.270Z,6.45
2017-08-08T23:00:52.795Z,5.20
2017-08-08T23:03:22.440Z,5.25
2017-08-08T23:05:49.977Z,4.97
2017-08-08T23:08:17.521Z,4.60
2017-08-08T23:10:45.017Z,5.43
2017-08-08T23:13:12.533Z,4.70
2017-08-08T23:15:40.022Z,7.10
2017-08-08T23:18:07.520Z,5.85
2017-08-08T23:20:35.807Z,6.15
2017-08-08T23:23:03.973Z,6.35
2017-08-08T23:25:31.487Z,5.78
2017-08-08T23:27:58.977Z,7.05
2017-08-08T23:30:27.241Z,6.20
2017-08-08T23:32:54.752Z,9.75
2017-08-08T23:35:22.321Z,5.50
2017-08-08T23:37:49.827Z,6.22
2017-08-08T23:40:17.325Z,5.87
2017-08-08T23:42:44.841Z,6.62
2017-08-08T23:45:12.380Z,6.15
2017-08-08T23:47:39.869Z,6.65
2017-08-08T23:50:08.137Z,6.82
2017-08-08T23:52:35.663Z,5.93
2017-08-08T23:55:03.155Z,6.32
2017-08-08T23:57:30.760Z,6.10
2017-08-08T23:59:58.289Z,6.85
